• Join FlightAware (Why Join?)
  • Login
  • US Flag 
06:10PM EST


 

Airport Tracker/Info


-or-


 

Live Flight TrackerFlight Track Log ✈ N496ER ✈ 08-Oct-2013 ✈ KVOK - KEAU

Flight Track Log - Related Links

Times and Time Zones

All times are in EDT time to prevent confusion due to time zone crossing. See the N496ER flight status page for this flight to view local times or setup timezone preferences in your user account.

Time Position Orientation Groundspeed Altitude Reporting Facility
EDT Latitude Longitude Course Direction KTS MPH feet Rate Location/Type
11:50AM 43.7219 -90.0453 325° Northwest 122 140 4,400  Level Chicago Center
11:51AM 43.7503 -90.0731 325° Northwest 125 144 4,400  Level Chicago Center
11:52AM 43.7747 -90.1028 319° Northwest 120 138 4,400 180 Level Chicago Center
11:53AM 43.8072 -90.1353 324° Northwest 120 138 4,800 480 Climbing Chicago Center
11:54AM 43.8275 -90.1619 317° Northwest 107 123 5,400 480 Climbing Chicago Center
11:55AM 43.8508 -90.1842 326° Northwest 103 119 5,900 300 Climbing Chicago Center
11:57AM 43.9000 -90.2331 324° Northwest 113 130 6,400 120 Climbing Minneapolis Center
11:58AM 43.9242 -90.2603 321° Northwest 115 132 6,300 -60 Descending Minneapolis Center
11:59AM 43.9464 -90.2894 317° Northwest 105 121 6,300 -240 Level Minneapolis Center
12:00PM 43.9708 -90.3217 317° Northwest 117 135 5,900 -420 Descending Minneapolis Center
12:01PM 43.9961 -90.3547 317° Northwest 118 136 5,500 -480 Descending Minneapolis Center
12:02PM 44.0228 -90.3878 318° Northwest 122 140 5,000 -480 Descending Minneapolis Center
12:03PM 44.0503 -90.4236 317° Northwest 128 147 4,600 -300 Descending Minneapolis Center
12:04PM 44.0822 -90.4467 333° Northwest 137 158 4,400 -180 Descending Minneapolis Center
12:05PM 44.1175 -90.4681 336° Northwest 133 153 4,300 -60 Descending Minneapolis Center
12:06PM 44.1483 -90.4928 330° Northwest 124 143 4,300  Level Minneapolis Center
12:07PM 44.1761 -90.5214 324° Northwest 120 138 4,400 60 Climbing Minneapolis Center
12:08PM 44.2028 -90.5478 325° Northwest 114 131 4,500 60 Climbing Minneapolis Center
12:09PM 44.2264 -90.5767 319° Northwest 115 132 4,600 60 Climbing Minneapolis Center
12:10PM 44.2528 -90.6094 318° Northwest 120 138 4,700 -60 Climbing Minneapolis Center
12:11PM 44.2775 -90.6453 314° West 122 140 4,500 -120 Descending Minneapolis Center
12:12PM 44.3033 -90.6797 316° Northwest 123 142 4,500  Level Minneapolis Center
12:13PM 44.3292 -90.7133 317° Northwest 121 139 4,500  Level Minneapolis Center
12:14PM 44.3517 -90.7461 314° West 121 139 4,500  Level Minneapolis Center
12:15PM 44.3764 -90.7808 315° West 121 139 4,600  Climbing Minneapolis Center
12:16PM 44.4022 -90.8158 316° Northwest 123 142 4,600  Level Minneapolis Center
12:17PM 44.4275 -90.8506 316° Northwest 122 140 4,600  Level Minneapolis Center
12:19PM 44.4531 -90.8853 316° Northwest 122 140 4,600 -120 Level Minneapolis Center
12:20PM 44.4761 -90.9167 316° Northwest 121 139 4,400 -120 Descending Minneapolis Center
12:21PM 44.5000 -90.9531 313° West 122 140 4,400  Level Minneapolis Center
12:22PM 44.5197 -90.9889 308° West 114 131 4,500  Climbing Minneapolis Center
12:23PM 44.5425 -91.0231 313° West 113 130 4,500  Level Minneapolis Center
12:24PM 44.5644 -91.0603 310° West 117 135 4,500 -60 Level Minneapolis Center
12:25PM 44.5844 -91.0964 308° West 115 132 4,400  Descending Minneapolis Center
12:26PM 44.6083 -91.1264 318° Northwest 117 135 4,500  Climbing Minneapolis Center
12:27PM 44.6336 -91.1594 317° Northwest 119 137 4,400 -60 Descending Minneapolis Center
12:28PM 44.6589 -91.1939 316° Northwest 121 139 4,400 60 Level Minneapolis Center
12:29PM 44.6858 -91.2267 319° Northwest 122 140 4,600 180 Climbing Minneapolis Center